createdAt,value
2019-03-15T12:36:07.602Z,16.31
2019-03-15T12:41:09.726Z,15.38
2019-03-15T12:46:12.090Z,14.77
2019-03-15T12:51:16.671Z,14.51
2019-03-15T12:56:21.314Z,14.90
2019-03-15T13:01:25.862Z,15.20
2019-03-15T13:06:33.280Z,15.27
2019-03-15T13:11:36.423Z,14.69
2019-03-15T13:16:38.718Z,14.95
2019-03-15T13:21:43.013Z,15.32
2019-03-15T13:26:49.234Z,15.26
2019-03-15T13:31:53.770Z,15.31
2019-03-15T13:36:56.118Z,15.34
2019-03-15T13:41:58.487Z,14.77
2019-03-15T13:47:00.688Z,15.50
2019-03-15T13:52:02.820Z,15.05
2019-03-15T13:57:20.295Z,14.92
2019-03-15T14:02:13.935Z,14.70
2019-03-15T14:07:20.190Z,14.63
2019-03-15T14:12:23.542Z,14.73
2019-03-15T14:17:25.791Z,14.73
2019-03-15T14:22:27.906Z,14.14
2019-03-15T14:27:37.822Z,14.50
2019-03-15T14:32:38.352Z,14.97
2019-03-15T14:37:40.487Z,14.97
2019-03-15T14:42:42.690Z,14.80
2019-03-15T14:47:47.649Z,14.63
2019-03-15T14:52:49.774Z,14.70
2019-03-15T14:57:53.888Z,14.70
2019-03-15T15:02:55.914Z,14.70
2019-03-15T15:08:03.112Z,14.21
2019-03-15T15:13:05.170Z,14.59
2019-03-15T15:18:07.473Z,14.44
2019-03-15T15:23:09.522Z,14.27
2019-03-15T15:28:15.859Z,14.28
2019-03-15T15:33:17.871Z,14.33
2019-03-15T15:38:20.416Z,14.33
2019-03-15T15:43:25.737Z,14.72
2019-03-15T15:48:30.371Z,14.27
2019-03-15T15:53:36.794Z,14.24
2019-03-15T15:58:40.354Z,14.31
2019-03-15T16:03:49.181Z,14.31
2019-03-15T16:08:52.424Z,13.66
2019-03-15T16:13:55.294Z,14.22
2019-03-15T16:19:01.751Z,14.22
2019-03-15T16:24:03.826Z,14.62
2019-03-15T16:29:08.735Z,14.54
2019-03-15T16:34:10.960Z,14.26
2019-03-15T16:39:16.137Z,14.09
2019-03-15T16:44:18.270Z,13.85
2019-03-15T16:49:22.159Z,13.86
2019-03-15T16:54:24.372Z,13.69
2019-03-15T16:59:26.424Z,13.73
2019-03-15T17:04:33.829Z,13.94
2019-03-15T17:09:36.019Z,13.78
2019-03-15T17:14:40.382Z,13.61
2019-03-15T17:19:42.478Z,13.45
2019-03-15T17:24:45.315Z,12.99
2019-03-15T17:29:47.329Z,13.24
2019-03-15T17:34:51.447Z,13.45
2019-03-15T17:39:56.632Z,13.45
2019-03-15T17:45:03.674Z,13.41
2019-03-15T17:50:08.869Z,13.17
2019-03-15T17:55:11.345Z,13.25
2019-03-15T18:00:51.232Z,13.35
2019-03-15T18:06:14.104Z,13.25
2019-03-15T18:11:41.503Z,12.59
2019-03-15T18:17:04.388Z,12.39
2019-03-15T18:22:28.291Z,12.83
2019-03-15T18:27:51.098Z,12.43
2019-03-15T18:33:13.999Z,12.45
2019-03-15T18:38:36.456Z,12.42
2019-03-15T18:44:08.654Z,12.56
2019-03-15T18:49:33.048Z,12.19
2019-03-15T18:54:56.789Z,11.93
2019-03-15T18:59:59.706Z,12.29
2019-03-15T19:05:02.085Z,12.08
2019-03-15T19:10:06.751Z,11.78
2019-03-15T19:15:10.074Z,11.88
2019-03-15T19:20:12.363Z,12.20
2019-03-15T19:25:14.915Z,11.78
2019-03-15T19:30:17.200Z,11.92
2019-03-15T19:35:21.299Z,11.84
2019-03-15T19:40:23.386Z,11.70
2019-03-15T19:45:25.590Z,11.73
2019-03-15T19:50:27.809Z,11.45
2019-03-15T19:55:32.462Z,11.38
2019-03-15T20:00:38.947Z,11.39
2019-03-15T20:05:42.131Z,11.59
2019-03-15T20:10:44.255Z,11.54
2019-03-15T20:15:51.138Z,11.37
2019-03-15T20:20:53.250Z,11.44
2019-03-15T20:25:57.303Z,11.60
2019-03-15T20:30:59.397Z,11.36
2019-03-15T20:36:01.429Z,11.49
2019-03-15T20:41:04.031Z,11.28
2019-03-15T20:46:11.200Z,11.28
2019-03-15T20:51:13.341Z,11.49
2019-03-15T20:56:15.437Z,11.21
2019-03-15T21:01:17.489Z,11.37
2019-03-15T21:06:19.695Z,11.16
2019-03-15T21:11:27.079Z,11.09
2019-03-15T21:16:29.136Z,11.34
2019-03-15T21:21:31.240Z,11.70
2019-03-15T21:26:37.786Z,12.07
2019-03-15T21:31:44.175Z,11.78
2019-03-15T21:36:46.205Z,12.01
2019-03-15T21:41:48.303Z,11.83
2019-03-15T21:46:57.614Z,12.19
2019-03-15T21:51:59.693Z,11.95
2019-03-15T21:57:01.936Z,11.97
2019-03-15T22:02:05.274Z,11.98
2019-03-15T22:07:07.422Z,11.74
2019-03-15T22:12:11.325Z,11.67
2019-03-15T22:17:13.359Z,11.78
2019-03-15T22:22:20.003Z,11.84
2019-03-15T22:27:19.654Z,11.83
2019-03-15T22:32:23.346Z,12.09
2019-03-15T22:37:25.498Z,12.24
2019-03-15T22:42:29.635Z,12.21
2019-03-15T22:47:33.110Z,11.99
2019-03-15T22:52:35.244Z,12.29
2019-03-15T22:57:37.447Z,12.28
2019-03-15T23:02:41.684Z,12.27
2019-03-15T23:07:46.295Z,12.03
2019-03-15T23:12:49.817Z,12.05
2019-03-15T23:17:55.819Z,12.31
2019-03-15T23:22:57.840Z,12.54
2019-03-15T23:28:00.108Z,12.38
2019-03-15T23:33:04.187Z,12.34
2019-03-15T23:38:08.461Z,12.31
2019-03-15T23:43:10.494Z,12.01
2019-03-15T23:48:12.737Z,12.30
2019-03-15T23:53:14.740Z,12.11
2019-03-15T23:58:17.082Z,12.21
